createdAt,value
2023-04-21T00:01:27.619Z,72.60
2023-04-21T00:03:55.510Z,72.70
2023-04-21T00:06:23.251Z,72.70
2023-04-21T00:08:50.708Z,72.70
2023-04-21T00:11:17.573Z,72.60
2023-04-21T00:13:44.782Z,72.60
2023-04-21T00:16:11.627Z,72.60
2023-04-21T00:18:38.409Z,72.60
2023-04-21T00:21:05.325Z,72.60
2023-04-21T00:23:32.027Z,72.30
2023-04-21T00:25:59.396Z,72.30
2023-04-21T00:28:26.065Z,72.40
2023-04-21T00:30:54.318Z,72.60
2023-04-21T00:33:21.450Z,72.70
2023-04-21T00:35:48.155Z,72.70
2023-04-21T00:38:14.802Z,72.70
2023-04-21T00:40:42.796Z,72.70
2023-04-21T00:43:11.797Z,72.70
2023-04-21T00:45:38.471Z,72.70
2023-04-21T00:48:05.489Z,72.60
2023-04-21T00:50:33.087Z,72.70
2023-04-21T00:53:00.644Z,72.70
2023-04-21T00:55:27.597Z,72.60
2023-04-21T00:57:56.412Z,72.60
2023-04-21T01:00:27.580Z,72.60
2023-04-21T01:02:54.553Z,72.60
2023-04-21T01:05:21.572Z,72.60
2023-04-21T01:07:48.943Z,72.50
2023-04-21T01:10:15.709Z,72.50
2023-04-21T01:12:44.511Z,72.50
2023-04-21T01:15:12.536Z,72.50
2023-04-21T01:17:40.304Z,72.50
2023-04-21T01:20:10.710Z,72.50
2023-04-21T01:22:47.815Z,72.60
2023-04-21T01:25:15.035Z,72.50
2023-04-21T01:27:41.702Z,72.40
2023-04-21T01:30:09.920Z,72.50
2023-04-21T01:32:36.985Z,72.50
2023-04-21T01:35:04.075Z,72.50
2023-04-21T01:37:32.607Z,72.50
2023-04-21T01:40:01.392Z,72.50
2023-04-21T01:42:30.630Z,72.50
2023-04-21T01:44:58.338Z,72.60
2023-04-21T01:47:25.469Z,72.60
2023-04-21T01:49:52.641Z,72.60
2023-04-21T01:52:19.371Z,72.60
2023-04-21T01:54:46.306Z,72.50
2023-04-21T01:57:14.307Z,72.50
2023-04-21T01:59:41.019Z,72.50
2023-04-21T02:02:08.023Z,72.40
2023-04-21T02:04:35.155Z,72.50
2023-04-21T02:07:02.388Z,72.50
2023-04-21T02:09:29.136Z,72.50
2023-04-21T02:11:57.332Z,72.50
2023-04-21T02:14:27.560Z,72.50
2023-04-21T02:16:56.054Z,72.50
2023-04-21T02:19:23.171Z,72.50
2023-04-21T02:21:49.915Z,72.50
2023-04-21T02:24:16.621Z,72.50
2023-04-21T02:26:43.324Z,72.50
2023-04-21T02:29:10.588Z,72.50
2023-04-21T02:31:53.849Z,72.50
2023-04-21T02:34:21.379Z,72.60
2023-04-21T02:36:48.081Z,72.70
2023-04-21T02:39:14.734Z,72.60
2023-04-21T02:41:41.511Z,72.70
2023-04-21T02:44:08.146Z,72.70
2023-04-21T02:46:34.821Z,72.60
2023-04-21T02:49:01.455Z,72.60
2023-04-21T02:51:28.335Z,72.70
2023-04-21T02:53:54.973Z,72.80
2023-04-21T02:56:21.608Z,72.80
2023-04-21T02:58:48.292Z,73.00
2023-04-21T03:01:16.511Z,73.10
2023-04-21T03:03:43.328Z,73.10
2023-04-21T03:06:11.269Z,73.00
2023-04-21T03:08:39.137Z,73.00
2023-04-21T03:11:06.082Z,73.00
2023-04-21T03:13:32.770Z,72.90
2023-04-21T03:15:59.421Z,72.80
2023-04-21T03:18:26.325Z,73.10
2023-04-21T03:20:58.763Z,73.20
2023-04-21T03:23:25.683Z,73.10
2023-04-21T03:25:52.355Z,73.00
2023-04-21T03:28:19.391Z,73.00
2023-04-21T03:30:46.325Z,73.10
2023-04-21T03:33:13.026Z,73.10
2023-04-21T03:35:40.406Z,73.10
2023-04-21T03:38:08.183Z,73.10
2023-04-21T03:40:35.557Z,73.20
2023-04-21T03:43:03.150Z,73.20
2023-04-21T03:45:29.811Z,73.10
2023-04-21T03:47:59.217Z,73.10
2023-04-21T03:50:25.877Z,73.00
2023-04-21T03:52:52.541Z,73.10
2023-04-21T03:55:19.186Z,73.10
2023-04-21T03:57:45.916Z,73.10
2023-04-21T04:00:13.757Z,73.10
2023-04-21T04:02:40.939Z,73.00
2023-04-21T04:05:08.252Z,72.90
2023-04-21T04:07:35.487Z,72.90
2023-04-21T04:10:02.117Z,72.80
2023-04-21T04:12:28.796Z,72.80
2023-04-21T04:14:55.463Z,72.80
2023-04-21T04:17:22.213Z,72.80
2023-04-21T04:19:48.885Z,72.70
2023-04-21T04:22:15.587Z,72.70
2023-04-21T04:24:44.970Z,72.80
2023-04-21T04:27:14.025Z,72.90
2023-04-21T04:29:41.135Z,73.00
2023-04-21T04:32:10.855Z,72.80
2023-04-21T04:34:38.127Z,72.90
2023-04-21T04:37:05.056Z,72.80
2023-04-21T04:39:32.130Z,72.70
2023-04-21T04:41:58.953Z,72.90
2023-04-21T04:44:25.794Z,72.80
2023-04-21T04:46:52.955Z,72.60
2023-04-21T04:49:19.734Z,72.80
2023-04-21T04:51:46.843Z,72.60
2023-04-21T04:54:13.502Z,72.60
2023-04-21T04:56:40.454Z,72.70
2023-04-21T04:59:07.166Z,72.60
2023-04-21T05:01:33.889Z,72.60
2023-04-21T05:04:00.765Z,72.60
2023-04-21T05:06:28.438Z,72.60
2023-04-21T05:08:56.088Z,72.60
2023-04-21T05:11:23.094Z,72.60
2023-04-21T05:13:49.774Z,72.60
2023-04-21T05:16:16.464Z,72.60
2023-04-21T05:18:43.123Z,72.70
2023-04-21T05:21:09.764Z,72.60
2023-04-21T05:23:36.436Z,72.70
2023-04-21T05:26:04.731Z,72.60
2023-04-21T05:28:31.980Z,72.70
2023-04-21T05:30:58.731Z,72.60
2023-04-21T05:33:26.720Z,72.70
2023-04-21T05:35:53.545Z,72.70
2023-04-21T05:38:20.245Z,72.70
2023-04-21T05:40:53.938Z,72.70
2023-04-21T05:43:20.679Z,72.60
2023-04-21T05:45:47.347Z,72.70
2023-04-21T05:48:14.048Z,72.70
2023-04-21T05:50:40.724Z,72.60
2023-04-21T05:53:07.361Z,72.60
2023-04-21T05:55:34.803Z,72.60
2023-04-21T05:58:01.496Z,72.60
2023-04-21T06:00:28.125Z,72.70
2023-04-21T06:02:54.893Z,72.30
2023-04-21T06:05:21.875Z,72.90
2023-04-21T06:07:48.566Z,72.40
2023-04-21T06:10:15.956Z,72.20
2023-04-21T06:12:42.592Z,71.90
2023-04-21T06:15:09.630Z,71.90
2023-04-21T06:17:36.393Z,71.90
2023-04-21T06:20:04.057Z,72.80
2023-04-21T06:22:30.890Z,73.90
2023-04-21T06:24:58.664Z,74.10
2023-04-21T06:27:25.764Z,73.80
2023-04-21T06:29:58.311Z,73.50
2023-04-21T06:32:24.982Z,73.30
2023-04-21T06:34:51.631Z,73.20
2023-04-21T06:37:18.449Z,73.10
2023-04-21T06:39:45.214Z,73.00
2023-04-21T06:42:11.940Z,73.00
2023-04-21T06:44:45.212Z,72.80
2023-04-21T06:47:12.114Z,72.40
2023-04-21T06:49:39.339Z,73.20
2023-04-21T06:52:06.687Z,73.10
2023-04-21T06:54:33.885Z,73.50
2023-04-21T06:57:00.600Z,73.30
2023-04-21T06:59:27.256Z,73.70
2023-04-21T07:01:54.190Z,73.50
2023-04-21T07:04:21.310Z,73.50
2023-04-21T07:06:49.170Z,73.50
2023-04-21T07:09:15.846Z,73.30
2023-04-21T07:11:42.491Z,72.50
2023-04-21T07:14:09.204Z,73.20
2023-04-21T07:16:35.915Z,72.90
2023-04-21T07:19:02.635Z,72.30
2023-04-21T07:21:31.881Z,72.50
2023-04-21T07:23:58.914Z,72.20
2023-04-21T07:26:25.671Z,72.20
2023-04-21T07:28:52.832Z,71.90
2023-04-21T07:31:19.751Z,72.00
2023-04-21T07:33:46.867Z,71.80
2023-04-21T07:36:13.588Z,71.70
2023-04-21T07:38:43.221Z,71.80
2023-04-21T07:41:13.477Z,71.70
2023-04-21T07:43:40.653Z,71.60
2023-04-21T07:46:07.683Z,71.70
2023-04-21T07:48:34.435Z,71.90
2023-04-21T07:51:02.189Z,72.20
2023-04-21T07:53:29.085Z,73.00
2023-04-21T07:55:55.790Z,72.80
2023-04-21T07:58:22.554Z,72.90
2023-04-21T08:00:49.772Z,72.90
2023-04-21T08:03:16.840Z,72.30
2023-04-21T08:05:43.719Z,72.20
2023-04-21T08:08:10.467Z,72.00
2023-04-21T08:10:37.182Z,72.00
2023-04-21T08:13:06.247Z,72.70
2023-04-21T08:15:34.619Z,72.80
2023-04-21T08:18:01.458Z,72.80
2023-04-21T08:20:28.451Z,72.70
2023-04-21T08:22:55.322Z,72.70
2023-04-21T08:25:22.440Z,72.60
2023-04-21T08:27:49.150Z,72.50
2023-04-21T08:30:16.269Z,72.50
2023-04-21T08:32:43.041Z,72.50
2023-04-21T08:35:10.221Z,72.60
2023-04-21T08:37:38.477Z,72.50
2023-04-21T08:40:06.317Z,72.20
2023-04-21T08:42:34.681Z,72.40
2023-04-21T08:45:01.334Z,72.20
2023-04-21T08:47:29.637Z,72.20
2023-04-21T08:49:57.322Z,72.30
2023-04-21T08:52:23.967Z,72.30
2023-04-21T08:54:53.226Z,72.40
2023-04-21T08:57:19.949Z,72.40
2023-04-21T08:59:46.636Z,72.10
2023-04-21T09:02:16.085Z,72.00
2023-04-21T09:04:51.631Z,72.20
2023-04-21T09:07:31.721Z,72.30
2023-04-21T09:10:00.249Z,72.40
2023-04-21T09:12:27.819Z,72.40
2023-04-21T09:14:54.669Z,72.40
2023-04-21T09:17:27.237Z,72.50
2023-04-21T09:19:53.903Z,72.60
2023-04-21T09:22:20.554Z,73.00
2023-04-21T09:24:57.954Z,73.00
2023-04-21T09:27:24.578Z,73.20
2023-04-21T09:29:51.315Z,73.00
2023-04-21T09:32:19.476Z,72.80
2023-04-21T09:34:46.673Z,72.70
2023-04-21T09:37:16.560Z,72.60
2023-04-21T09:40:02.923Z,72.50
2023-04-21T09:42:32.338Z,72.70
2023-04-21T09:45:14.057Z,72.80
2023-04-21T09:47:49.143Z,72.10
2023-04-21T09:50:20.607Z,71.80
2023-04-21T09:52:57.155Z,72.50
2023-04-21T09:55:27.860Z,72.90
2023-04-21T09:58:02.572Z,73.30
2023-04-21T10:00:30.996Z,73.30
2023-04-21T10:03:04.535Z,73.40
2023-04-21T10:05:31.847Z,73.50
2023-04-21T10:07:58.704Z,73.80
2023-04-21T10:10:31.904Z,73.90
2023-04-21T10:12:59.274Z,73.80
2023-04-21T10:15:30.513Z,74.20
2023-04-21T10:18:14.340Z,74.40
2023-04-21T10:21:03.318Z,74.70
2023-04-21T10:23:31.128Z,74.80
2023-04-21T10:26:11.968Z,74.20
2023-04-21T10:28:43.615Z,74.20
2023-04-21T10:31:22.150Z,75.40
2023-04-21T10:34:07.498Z,75.30
2023-04-21T10:36:42.070Z,75.30
2023-04-21T10:39:12.211Z,75.00
2023-04-21T10:41:39.332Z,74.20
2023-04-21T10:44:13.784Z,74.30
2023-04-21T10:46:45.757Z,74.20
2023-04-21T10:49:24.113Z,74.00
2023-04-21T10:52:02.972Z,73.80
2023-04-21T10:54:45.701Z,73.60
2023-04-21T10:57:15.092Z,73.70
2023-04-21T10:59:42.461Z,73.90
2023-04-21T11:02:12.692Z,73.50
2023-04-21T11:04:42.035Z,73.90
2023-04-21T11:07:12.582Z,73.90
2023-04-21T11:09:40.979Z,73.90
2023-04-21T11:12:10.154Z,74.30
2023-04-21T11:14:38.407Z,73.60
2023-04-21T11:17:10.628Z,73.60
2023-04-21T11:19:37.603Z,74.10
2023-04-21T11:22:05.087Z,74.20
2023-04-21T11:24:32.592Z,74.10
2023-04-21T11:27:01.958Z,74.80
2023-04-21T11:29:31.955Z,74.00
2023-04-21T11:31:59.441Z,74.10
2023-04-21T11:34:27.130Z,74.20
2023-04-21T11:36:54.069Z,74.10
2023-04-21T11:39:22.215Z,74.20
2023-04-21T11:41:50.824Z,74.30
2023-04-21T11:44:38.023Z,74.20
2023-04-21T11:47:18.984Z,74.20
2023-04-21T11:49:56.960Z,74.30
2023-04-21T11:52:34.272Z,74.70
2023-04-21T11:55:12.362Z,74.80
2023-04-21T11:57:40.795Z,74.80
2023-04-21T12:00:16.188Z,74.70
2023-04-21T12:02:43.426Z,74.50
2023-04-21T12:05:12.608Z,74.40
2023-04-21T12:07:44.612Z,74.50
2023-04-21T12:10:19.560Z,74.80
2023-04-21T12:12:46.575Z,74.20
2023-04-21T12:15:18.706Z,74.30
2023-04-21T12:17:46.251Z,74.20
2023-04-21T12:20:16.081Z,74.20
2023-04-21T12:22:42.769Z,74.10
2023-04-21T12:25:09.590Z,73.70
2023-04-21T12:27:36.301Z,74.30
2023-04-21T12:30:04.041Z,74.30
2023-04-21T12:32:30.858Z,74.40
2023-04-21T12:34:57.792Z,74.50
2023-04-21T12:37:24.496Z,74.40
2023-04-21T12:39:51.136Z,74.40
2023-04-21T12:42:17.784Z,74.60
2023-04-21T12:44:44.858Z,75.00
2023-04-21T12:47:11.606Z,74.80
2023-04-21T12:49:38.298Z,74.70
2023-04-21T12:52:06.090Z,74.90
2023-04-21T12:54:33.307Z,74.90
2023-04-21T12:56:59.947Z,75.00
2023-04-21T12:59:26.662Z,74.90
2023-04-21T13:01:53.463Z,74.80
2023-04-21T13:04:20.431Z,74.80
2023-04-21T13:06:47.420Z,74.60
2023-04-21T13:09:14.090Z,74.30
2023-04-21T13:11:40.809Z,74.40
2023-04-21T13:14:07.486Z,74.20
2023-04-21T13:16:34.187Z,74.10
2023-04-21T13:19:01.092Z,74.20
2023-04-21T13:21:27.892Z,74.20
2023-04-21T13:23:56.007Z,74.20
2023-04-21T13:26:22.714Z,74.10
2023-04-21T13:28:49.716Z,74.00
2023-04-21T13:31:16.648Z,74.00
2023-04-21T13:33:43.465Z,73.90
2023-04-21T13:36:12.843Z,73.90
2023-04-21T13:38:40.688Z,73.90
2023-04-21T13:41:08.104Z,73.80
2023-04-21T13:43:34.877Z,73.90
2023-04-21T13:46:01.656Z,73.80
2023-04-21T13:48:29.664Z,73.80
2023-04-21T13:50:56.451Z,73.80
2023-04-21T13:53:23.331Z,73.80
2023-04-21T13:55:50.396Z,73.70
2023-04-21T13:58:17.794Z,73.70
2023-04-21T14:00:44.554Z,73.60
2023-04-21T14:03:11.751Z,73.60
2023-04-21T14:05:39.035Z,73.70
2023-04-21T14:08:06.114Z,73.60
2023-04-21T14:10:33.000Z,73.60
2023-04-21T14:12:59.702Z,73.50
2023-04-21T14:15:26.923Z,73.50
2023-04-21T14:17:54.021Z,73.50
2023-04-21T14:20:20.884Z,73.50
2023-04-21T14:22:47.733Z,73.50
2023-04-21T14:25:14.518Z,73.50
2023-04-21T14:27:41.265Z,73.60
2023-04-21T14:30:08.564Z,73.40
2023-04-21T14:32:35.287Z,73.50
2023-04-21T14:35:03.725Z,73.40
2023-04-21T14:37:30.445Z,73.40
2023-04-21T14:39:57.144Z,73.50
2023-04-21T14:42:23.811Z,73.40
2023-04-21T14:44:50.723Z,73.80
2023-04-21T14:47:17.540Z,73.20
2023-04-21T14:49:44.363Z,74.20
2023-04-21T14:52:11.438Z,74.10
2023-04-21T14:54:38.187Z,74.10
2023-04-21T14:57:18.954Z,74.10
2023-04-21T14:59:47.802Z,74.10
2023-04-21T15:02:14.828Z,74.10
2023-04-21T15:04:41.722Z,74.20
2023-04-21T15:07:08.620Z,74.20
2023-04-21T15:09:39.081Z,74.30
2023-04-21T15:12:06.180Z,73.50
2023-04-21T15:14:33.009Z,74.60
2023-04-21T15:16:59.793Z,74.50
2023-04-21T15:19:26.463Z,75.30
2023-04-21T15:21:53.174Z,75.60
2023-04-21T15:24:19.867Z,75.70
2023-04-21T15:26:46.546Z,74.90
2023-04-21T15:29:13.290Z,75.00
2023-04-21T15:31:40.211Z,74.30
2023-04-21T15:34:07.031Z,74.60
2023-04-21T15:36:34.236Z,74.70
2023-04-21T15:39:00.932Z,75.50
2023-04-21T15:41:29.469Z,74.90
2023-04-21T15:43:56.477Z,74.80
2023-04-21T15:46:23.299Z,74.70
2023-04-21T15:48:50.198Z,74.70
2023-04-21T15:51:18.823Z,74.20
2023-04-21T15:53:47.872Z,74.40
2023-04-21T15:56:15.517Z,74.50
2023-04-21T15:58:42.546Z,74.50
2023-04-21T16:01:09.515Z,74.40
2023-04-21T16:03:36.693Z,74.50
2023-04-21T16:06:04.017Z,74.50
2023-04-21T16:08:33.094Z,74.40
2023-04-21T16:11:00.658Z,74.50
2023-04-21T16:13:27.736Z,74.40
2023-04-21T16:15:54.527Z,74.40
2023-04-21T16:18:21.442Z,74.50
2023-04-21T16:20:48.329Z,74.60
2023-04-21T16:23:15.694Z,74.60
2023-04-21T16:25:43.227Z,74.50
2023-04-21T16:28:11.407Z,74.50
2023-04-21T16:30:43.204Z,74.60
2023-04-21T16:33:14.397Z,74.50
2023-04-21T16:35:41.297Z,74.40
2023-04-21T16:38:08.150Z,74.50
2023-04-21T16:40:34.874Z,74.50
2023-04-21T16:43:01.829Z,74.70
2023-04-21T16:45:29.521Z,74.80
2023-04-21T16:47:57.124Z,74.90
2023-04-21T16:50:24.027Z,74.80
2023-04-21T16:52:50.840Z,74.70
2023-04-21T16:55:17.907Z,74.70
2023-04-21T16:57:44.608Z,74.80
2023-04-21T17:00:11.693Z,74.80
2023-04-21T17:02:38.515Z,75.40
2023-04-21T17:05:05.679Z,74.70
2023-04-21T17:07:33.165Z,74.80
2023-04-21T17:09:59.935Z,74.70
2023-04-21T17:12:26.596Z,74.80
2023-04-21T17:14:53.406Z,74.90
2023-04-21T17:17:20.093Z,75.00
2023-04-21T17:19:46.736Z,75.00
2023-04-21T17:22:13.451Z,75.00
2023-04-21T17:24:52.440Z,74.90
2023-04-21T17:27:20.741Z,74.90
2023-04-21T17:29:47.680Z,75.00
2023-04-21T17:32:14.448Z,75.10
2023-04-21T17:34:41.287Z,75.10
2023-04-21T17:37:08.052Z,75.10
2023-04-21T17:39:34.708Z,75.00
2023-04-21T17:42:02.616Z,75.00
2023-04-21T17:44:29.578Z,75.30
2023-04-21T17:46:56.630Z,75.30
2023-04-21T17:49:24.820Z,75.30
2023-04-21T17:51:51.798Z,75.40
2023-04-21T17:54:18.905Z,75.50
2023-04-21T17:56:46.152Z,75.40
2023-04-21T17:59:13.309Z,75.40
2023-04-21T18:01:40.136Z,75.30
2023-04-21T18:04:07.230Z,75.40
2023-04-21T18:06:34.361Z,75.50
2023-04-21T18:09:01.316Z,75.60
2023-04-21T18:11:28.004Z,75.50
2023-04-21T18:13:54.636Z,75.30
2023-04-21T18:16:21.722Z,75.70
2023-04-21T18:18:48.580Z,75.50
2023-04-21T18:21:15.851Z,75.60
2023-04-21T18:23:43.346Z,75.50
2023-04-21T18:26:10.051Z,75.60
2023-04-21T18:28:36.804Z,75.50
2023-04-21T18:31:03.555Z,75.60
2023-04-21T18:33:30.325Z,75.50
2023-04-21T18:35:56.965Z,75.60
2023-04-21T18:38:23.675Z,75.60
2023-04-21T18:40:50.743Z,75.60
2023-04-21T18:43:17.376Z,75.60
2023-04-21T18:45:44.034Z,75.60
2023-04-21T18:48:10.766Z,75.60
2023-04-21T18:50:40.163Z,75.70
2023-04-21T18:53:07.819Z,75.70
2023-04-21T18:55:36.032Z,75.70
2023-04-21T18:58:03.269Z,75.80
2023-04-21T19:00:31.785Z,75.80
2023-04-21T19:03:01.975Z,75.80
2023-04-21T19:05:31.305Z,75.90
2023-04-21T19:07:58.522Z,76.00
2023-04-21T19:10:25.768Z,75.90
2023-04-21T19:12:52.581Z,75.90
2023-04-21T19:15:20.654Z,76.10
2023-04-21T19:17:47.544Z,75.90
2023-04-21T19:20:14.281Z,75.90
2023-04-21T19:22:41.685Z,76.00
2023-04-21T19:25:09.010Z,76.10
2023-04-21T19:27:36.429Z,76.10
2023-04-21T19:30:03.361Z,76.00
2023-04-21T19:32:30.499Z,76.10
2023-04-21T19:34:57.312Z,76.10
2023-04-21T19:37:25.709Z,76.20
2023-04-21T19:39:52.437Z,76.10
2023-04-21T19:42:19.070Z,76.10
2023-04-21T19:44:45.776Z,76.10
2023-04-21T19:47:12.585Z,76.10
2023-04-21T19:49:39.371Z,76.00
2023-04-21T19:52:07.048Z,76.10
2023-04-21T19:54:33.785Z,76.00
2023-04-21T19:57:01.620Z,76.00
2023-04-21T19:59:28.318Z,76.10
2023-04-21T20:01:55.039Z,76.40
2023-04-21T20:04:21.834Z,76.10
2023-04-21T20:06:48.845Z,76.20
2023-04-21T20:09:15.989Z,76.00
2023-04-21T20:11:42.724Z,75.70
2023-04-21T20:14:09.471Z,75.80
2023-04-21T20:16:36.857Z,76.00
2023-04-21T20:19:04.500Z,75.90
2023-04-21T20:21:32.324Z,75.90
2023-04-21T20:23:59.138Z,75.80
2023-04-21T20:26:25.936Z,75.80
2023-04-21T20:28:52.591Z,75.70
2023-04-21T20:31:23.494Z,75.80
2023-04-21T20:33:50.424Z,75.70
2023-04-21T20:36:17.647Z,75.80
2023-04-21T20:38:46.233Z,75.70
2023-04-21T20:41:13.431Z,75.50
2023-04-21T20:43:40.324Z,75.70
2023-04-21T20:46:08.772Z,75.70
2023-04-21T20:48:35.864Z,75.40
2023-04-21T20:51:02.733Z,75.70
2023-04-21T20:53:29.434Z,75.60
2023-04-21T20:55:56.092Z,75.40
2023-04-21T20:58:24.365Z,75.60
2023-04-21T21:00:51.104Z,75.60
2023-04-21T21:03:20.243Z,75.30
2023-04-21T21:05:47.470Z,75.50
2023-04-21T21:08:15.030Z,75.10
2023-04-21T21:10:41.828Z,75.10
2023-04-21T21:13:08.720Z,75.40
2023-04-21T21:15:35.508Z,75.50
2023-04-21T21:18:02.502Z,75.60
2023-04-21T21:20:29.271Z,75.50
2023-04-21T21:22:55.923Z,75.50
2023-04-21T21:25:22.679Z,75.20
2023-04-21T21:27:49.661Z,75.10
2023-04-21T21:30:16.386Z,75.30
2023-04-21T21:32:43.182Z,75.60
2023-04-21T21:35:10.397Z,75.20
2023-04-21T21:37:37.484Z,75.50
2023-04-21T21:40:04.724Z,75.60
2023-04-21T21:42:31.547Z,75.60
2023-04-21T21:44:58.235Z,75.70
2023-04-21T21:47:25.000Z,75.70
2023-04-21T21:49:54.683Z,75.30
2023-04-21T21:52:21.860Z,75.40
2023-04-21T21:54:48.530Z,75.60
2023-04-21T21:57:15.204Z,75.20
2023-04-21T21:59:42.066Z,74.80
2023-04-21T22:02:09.047Z,74.80
2023-04-21T22:04:35.942Z,74.70
2023-04-21T22:07:03.602Z,74.40
2023-04-21T22:09:30.470Z,74.60
2023-04-21T22:11:57.169Z,74.50
2023-04-21T22:14:24.306Z,74.40
2023-04-21T22:16:52.481Z,74.40
2023-04-21T22:19:19.414Z,74.40
2023-04-21T22:21:46.246Z,74.30
2023-04-21T22:24:13.049Z,75.00
2023-04-21T22:26:39.774Z,74.40
2023-04-21T22:29:06.964Z,74.40
2023-04-21T22:31:34.078Z,74.40
2023-04-21T22:34:00.861Z,74.80
2023-04-21T22:36:27.525Z,75.10
2023-04-21T22:38:54.172Z,74.40
2023-04-21T22:41:21.156Z,74.10
2023-04-21T22:43:47.964Z,74.30
2023-04-21T22:46:14.972Z,74.30
2023-04-21T22:48:41.771Z,74.30
2023-04-21T22:51:08.401Z,74.40
2023-04-21T22:53:35.337Z,74.30
2023-04-21T22:56:02.444Z,74.30
2023-04-21T22:58:29.118Z,74.30
2023-04-21T23:00:55.853Z,74.30
2023-04-21T23:03:23.358Z,74.40
2023-04-21T23:05:50.291Z,74.30
2023-04-21T23:08:17.001Z,74.30
2023-04-21T23:10:43.665Z,74.30
2023-04-21T23:13:10.668Z,74.30
2023-04-21T23:15:37.355Z,74.30
2023-04-21T23:18:04.409Z,74.30
2023-04-21T23:20:31.563Z,74.30
2023-04-21T23:22:58.495Z,74.30
2023-04-21T23:25:25.422Z,74.20
2023-04-21T23:27:52.084Z,74.30
2023-04-21T23:30:18.875Z,74.30
2023-04-21T23:32:45.926Z,74.20
2023-04-21T23:35:12.733Z,74.20
2023-04-21T23:37:40.265Z,74.30
2023-04-21T23:40:10.916Z,74.20
2023-04-21T23:42:38.711Z,74.20
2023-04-21T23:45:06.468Z,74.20
2023-04-21T23:47:33.806Z,74.10
2023-04-21T23:50:00.562Z,74.10
2023-04-21T23:52:27.362Z,74.20
2023-04-21T23:54:54.032Z,74.10
2023-04-21T23:57:20.857Z,74.10
2023-04-21T23:59:47.725Z,74.10
